sensor_id;sensor_type;location;lat;lon;timestamp;P1;durP1;ratioP1;P2;durP2;ratioP2
16506;SDS011;8366;51.020;7.642;2023-04-03T00:01:38;6.30;;;4.70;;
16506;SDS011;8366;51.020;7.642;2023-04-03T00:04:06;8.17;;;5.10;;
16506;SDS011;8366;51.020;7.642;2023-04-03T00:06:33;6.20;;;4.40;;
16506;SDS011;8366;51.020;7.642;2023-04-03T00:09:00;5.83;;;4.13;;
16506;SDS011;8366;51.020;7.642;2023-04-03T00:11:26;5.67;;;3.57;;
16506;SDS011;8366;51.020;7.642;2023-04-03T00:13:52;6.90;;;4.13;;
16506;SDS011;8366;51.020;7.642;2023-04-03T00:16:19;5.60;;;4.10;;
16506;SDS011;8366;51.020;7.642;2023-04-03T00:18:45;5.27;;;4.30;;
16506;SDS011;8366;51.020;7.642;2023-04-03T00:21:13;6.87;;;4.73;;
16506;SDS011;8366;51.020;7.642;2023-04-03T00:23:40;8.33;;;4.70;;
16506;SDS011;8366;51.020;7.642;2023-04-03T00:26:07;5.33;;;4.57;;
16506;SDS011;8366;51.020;7.642;2023-04-03T00:28:33;8.27;;;4.70;;
16506;SDS011;8366;51.020;7.642;2023-04-03T00:31:00;8.23;;;4.70;;
16506;SDS011;8366;51.020;7.642;2023-04-03T00:33:26;6.70;;;4.70;;
16506;SDS011;8366;51.020;7.642;2023-04-03T00:35:53;5.87;;;4.20;;
16506;SDS011;8366;51.020;7.642;2023-04-03T00:38:20;5.00;;;4.00;;
16506;SDS011;8366;51.020;7.642;2023-04-03T00:40:47;7.67;;;4.70;;
16506;SDS011;8366;51.020;7.642;2023-04-03T00:43:15;6.80;;;4.03;;
16506;SDS011;8366;51.020;7.642;2023-04-03T00:45:44;5.73;;;3.63;;
16506;SDS011;8366;51.020;7.642;2023-04-03T00:48:12;7.50;;;4.17;;
16506;SDS011;8366;51.020;7.642;2023-04-03T00:50:41;5.70;;;4.20;;
16506;SDS011;8366;51.020;7.642;2023-04-03T00:53:09;6.97;;;4.30;;
16506;SDS011;8366;51.020;7.642;2023-04-03T00:55:39;5.80;;;4.03;;
16506;SDS011;8366;51.020;7.642;2023-04-03T00:58:06;5.83;;;3.70;;
16506;SDS011;8366;51.020;7.642;2023-04-03T01:00:33;5.03;;;4.00;;
16506;SDS011;8366;51.020;7.642;2023-04-03T01:03:00;6.30;;;3.37;;
16506;SDS011;8366;51.020;7.642;2023-04-03T01:05:26;4.57;;;3.47;;
16506;SDS011;8366;51.020;7.642;2023-04-03T01:07:53;6.27;;;3.80;;
16506;SDS011;8366;51.020;7.642;2023-04-03T01:10:19;4.83;;;3.23;;
16506;SDS011;8366;51.020;7.642;2023-04-03T01:12:48;4.37;;;3.10;;
16506;SDS011;8366;51.020;7.642;2023-04-03T01:15:16;4.40;;;3.20;;
16506;SDS011;8366;51.020;7.642;2023-04-03T01:17:45;4.77;;;2.73;;
16506;SDS011;8366;51.020;7.642;2023-04-03T01:23:12;5.13;;;3.33;;
16506;SDS011;8366;51.020;7.642;2023-04-03T01:25:50;5.23;;;3.30;;
16506;SDS011;8366;51.020;7.642;2023-04-03T01:28:20;5.63;;;3.17;;
16506;SDS011;8366;51.020;7.642;2023-04-03T01:30:48;6.80;;;3.83;;
16506;SDS011;8366;51.020;7.642;2023-04-03T01:33:18;8.10;;;4.73;;
16506;SDS011;8366;51.020;7.642;2023-04-03T01:35:45;8.27;;;4.77;;
16506;SDS011;8366;51.020;7.642;2023-04-03T01:38:11;9.23;;;5.20;;
16506;SDS011;8366;51.020;7.642;2023-04-03T01:40:38;8.53;;;5.40;;
16506;SDS011;8366;51.020;7.642;2023-04-03T01:43:04;9.40;;;5.70;;
16506;SDS011;8366;51.020;7.642;2023-04-03T01:45:31;9.27;;;6.23;;
16506;SDS011;8366;51.020;7.642;2023-04-03T01:47:57;8.87;;;5.47;;
16506;SDS011;8366;51.020;7.642;2023-04-03T01:50:25;10.37;;;5.53;;
16506;SDS011;8366;51.020;7.642;2023-04-03T01:52:52;6.57;;;4.90;;
16506;SDS011;8366;51.020;7.642;2023-04-03T01:55:18;7.30;;;4.53;;
16506;SDS011;8366;51.020;7.642;2023-04-03T01:57:45;7.30;;;4.90;;
16506;SDS011;8366;51.020;7.642;2023-04-03T02:00:11;8.33;;;4.83;;
16506;SDS011;8366;51.020;7.642;2023-04-03T02:02:38;6.97;;;4.70;;
16506;SDS011;8366;51.020;7.642;2023-04-03T02:05:06;6.23;;;4.33;;
16506;SDS011;8366;51.020;7.642;2023-04-03T02:07:34;7.03;;;4.33;;
16506;SDS011;8366;51.020;7.642;2023-04-03T02:10:00;7.03;;;4.90;;
16506;SDS011;8366;51.020;7.642;2023-04-03T02:12:27;6.50;;;4.50;;
16506;SDS011;8366;51.020;7.642;2023-04-03T02:14:53;6.20;;;4.30;;
16506;SDS011;8366;51.020;7.642;2023-04-03T02:17:20;9.33;;;5.13;;
16506;SDS011;8366;51.020;7.642;2023-04-03T02:19:46;11.73;;;6.03;;
16506;SDS011;8366;51.020;7.642;2023-04-03T02:22:12;8.37;;;5.47;;
16506;SDS011;8366;51.020;7.642;2023-04-03T02:24:40;7.37;;;5.20;;
16506;SDS011;8366;51.020;7.642;2023-04-03T02:27:07;11.57;;;5.80;;
16506;SDS011;8366;51.020;7.642;2023-04-03T02:29:33;8.47;;;5.10;;
16506;SDS011;8366;51.020;7.642;2023-04-03T02:32:00;8.20;;;4.93;;
16506;SDS011;8366;51.020;7.642;2023-04-03T02:34:26;8.60;;;5.10;;
16506;SDS011;8366;51.020;7.642;2023-04-03T02:36:53;9.30;;;4.97;;
16506;SDS011;8366;51.020;7.642;2023-04-03T02:39:19;8.43;;;5.33;;
16506;SDS011;8366;51.020;7.642;2023-04-03T02:41:47;8.40;;;4.20;;
16506;SDS011;8366;51.020;7.642;2023-04-03T02:44:14;6.67;;;3.77;;
16506;SDS011;8366;51.020;7.642;2023-04-03T02:46:44;5.67;;;3.70;;
16506;SDS011;8366;51.020;7.642;2023-04-03T02:49:10;5.37;;;3.60;;
16506;SDS011;8366;51.020;7.642;2023-04-03T02:51:37;4.37;;;3.20;;
16506;SDS011;8366;51.020;7.642;2023-04-03T02:54:03;6.63;;;2.73;;
16506;SDS011;8366;51.020;7.642;2023-04-03T02:56:29;4.43;;;2.87;;
16506;SDS011;8366;51.020;7.642;2023-04-03T02:58:57;5.27;;;2.70;;
16506;SDS011;8366;51.020;7.642;2023-04-03T03:01:24;4.07;;;2.90;;
16506;SDS011;8366;51.020;7.642;2023-04-03T03:03:53;4.60;;;2.80;;
16506;SDS011;8366;51.020;7.642;2023-04-03T03:06:19;4.50;;;2.70;;
16506;SDS011;8366;51.020;7.642;2023-04-03T03:08:46;5.87;;;3.00;;
16506;SDS011;8366;51.020;7.642;2023-04-03T03:11:12;4.30;;;2.67;;
16506;SDS011;8366;51.020;7.642;2023-04-03T03:13:39;3.77;;;2.70;;
16506;SDS011;8366;51.020;7.642;2023-04-03T03:16:07;3.90;;;2.70;;
16506;SDS011;8366;51.020;7.642;2023-04-03T03:18:34;4.10;;;2.80;;
16506;SDS011;8366;51.020;7.642;2023-04-03T03:21:01;3.33;;;2.87;;
16506;SDS011;8366;51.020;7.642;2023-04-03T03:23:29;3.80;;;2.30;;
16506;SDS011;8366;51.020;7.642;2023-04-03T03:25:57;4.70;;;2.40;;
16506;SDS011;8366;51.020;7.642;2023-04-03T03:28:24;4.43;;;2.40;;
16506;SDS011;8366;51.020;7.642;2023-04-03T03:30:51;3.23;;;2.30;;
16506;SDS011;8366;51.020;7.642;2023-04-03T03:33:19;4.30;;;2.73;;
16506;SDS011;8366;51.020;7.642;2023-04-03T03:35:45;4.70;;;2.37;;
16506;SDS011;8366;51.020;7.642;2023-04-03T03:38:12;4.60;;;2.40;;
16506;SDS011;8366;51.020;7.642;2023-04-03T03:40:38;4.30;;;2.27;;
16506;SDS011;8366;51.020;7.642;2023-04-03T03:43:05;4.60;;;2.20;;
16506;SDS011;8366;51.020;7.642;2023-04-03T03:45:31;2.73;;;1.87;;
16506;SDS011;8366;51.020;7.642;2023-04-03T03:47:58;3.80;;;2.47;;
16506;SDS011;8366;51.020;7.642;2023-04-03T03:50:26;3.57;;;2.10;;
16506;SDS011;8366;51.020;7.642;2023-04-03T03:52:52;3.23;;;2.03;;
16506;SDS011;8366;51.020;7.642;2023-04-03T03:55:18;4.23;;;2.17;;
16506;SDS011;8366;51.020;7.642;2023-04-03T03:57:45;2.93;;;2.07;;
16506;SDS011;8366;51.020;7.642;2023-04-03T04:00:12;5.77;;;2.40;;
16506;SDS011;8366;51.020;7.642;2023-04-03T04:02:38;6.27;;;2.10;;
16506;SDS011;8366;51.020;7.642;2023-04-03T04:05:05;4.87;;;2.20;;
16506;SDS011;8366;51.020;7.642;2023-04-03T04:07:34;3.40;;;2.40;;
16506;SDS011;8366;51.020;7.642;2023-04-03T04:10:00;4.60;;;2.20;;
16506;SDS011;8366;51.020;7.642;2023-04-03T04:12:27;7.37;;;2.60;;
16506;SDS011;8366;51.020;7.642;2023-04-03T04:14:53;3.00;;;2.40;;
16506;SDS011;8366;51.020;7.642;2023-04-03T04:17:19;6.27;;;2.77;;
16506;SDS011;8366;51.020;7.642;2023-04-03T04:19:46;5.47;;;3.40;;
16506;SDS011;8366;51.020;7.642;2023-04-03T04:22:12;6.17;;;2.90;;
16506;SDS011;8366;51.020;7.642;2023-04-03T04:24:40;4.90;;;2.97;;
16506;SDS011;8366;51.020;7.642;2023-04-03T04:27:07;3.77;;;2.50;;
16506;SDS011;8366;51.020;7.642;2023-04-03T04:29:33;6.13;;;2.73;;
16506;SDS011;8366;51.020;7.642;2023-04-03T04:32:01;3.80;;;2.00;;
16506;SDS011;8366;51.020;7.642;2023-04-03T04:34:28;3.67;;;2.30;;
16506;SDS011;8366;51.020;7.642;2023-04-03T04:36:54;5.87;;;1.90;;
16506;SDS011;8366;51.020;7.642;2023-04-03T04:39:21;4.97;;;2.30;;
16506;SDS011;8366;51.020;7.642;2023-04-03T04:41:49;2.40;;;2.00;;
16506;SDS011;8366;51.020;7.642;2023-04-03T04:44:15;4.30;;;2.20;;
16506;SDS011;8366;51.020;7.642;2023-04-03T04:46:41;2.80;;;2.00;;
16506;SDS011;8366;51.020;7.642;2023-04-03T04:49:08;3.07;;;1.70;;
16506;SDS011;8366;51.020;7.642;2023-04-03T04:51:34;2.93;;;1.50;;
16506;SDS011;8366;51.020;7.642;2023-04-03T04:54:01;3.17;;;1.70;;
16506;SDS011;8366;51.020;7.642;2023-04-03T04:56:27;2.90;;;1.70;;
16506;SDS011;8366;51.020;7.642;2023-04-03T04:58:55;4.23;;;1.90;;
16506;SDS011;8366;51.020;7.642;2023-04-03T05:01:21;4.13;;;1.77;;
16506;SDS011;8366;51.020;7.642;2023-04-03T05:03:48;2.93;;;1.70;;
16506;SDS011;8366;51.020;7.642;2023-04-03T05:06:14;3.00;;;2.00;;
16506;SDS011;8366;51.020;7.642;2023-04-03T05:08:41;5.40;;;1.97;;
16506;SDS011;8366;51.020;7.642;2023-04-03T05:11:07;3.63;;;1.97;;
16506;SDS011;8366;51.020;7.642;2023-04-03T05:13:34;3.50;;;1.93;;
16506;SDS011;8366;51.020;7.642;2023-04-03T05:16:01;3.43;;;1.87;;
16506;SDS011;8366;51.020;7.642;2023-04-03T05:18:28;3.37;;;2.00;;
16506;SDS011;8366;51.020;7.642;2023-04-03T05:20:55;5.37;;;2.17;;
16506;SDS011;8366;51.020;7.642;2023-04-03T05:23:21;6.00;;;2.53;;
16506;SDS011;8366;51.020;7.642;2023-04-03T05:25:47;6.17;;;2.33;;
16506;SDS011;8366;51.020;7.642;2023-04-03T05:28:14;3.73;;;2.37;;
16506;SDS011;8366;51.020;7.642;2023-04-03T05:30:40;3.37;;;2.10;;
16506;SDS011;8366;51.020;7.642;2023-04-03T05:33:09;5.07;;;1.87;;
16506;SDS011;8366;51.020;7.642;2023-04-03T05:35:35;4.07;;;2.30;;
16506;SDS011;8366;51.020;7.642;2023-04-03T05:38:04;2.87;;;2.30;;
16506;SDS011;8366;51.020;7.642;2023-04-03T05:40:30;4.63;;;2.30;;
16506;SDS011;8366;51.020;7.642;2023-04-03T05:42:57;4.70;;;2.50;;
16506;SDS011;8366;51.020;7.642;2023-04-03T05:45:23;4.03;;;2.40;;
16506;SDS011;8366;51.020;7.642;2023-04-03T05:47:49;5.13;;;2.20;;
16506;SDS011;8366;51.020;7.642;2023-04-03T05:50:17;3.83;;;2.20;;
16506;SDS011;8366;51.020;7.642;2023-04-03T05:52:45;4.53;;;2.43;;
16506;SDS011;8366;51.020;7.642;2023-04-03T05:55:13;6.37;;;2.63;;
16506;SDS011;8366;51.020;7.642;2023-04-03T05:57:39;3.90;;;2.80;;
16506;SDS011;8366;51.020;7.642;2023-04-03T06:00:07;5.77;;;2.97;;
16506;SDS011;8366;51.020;7.642;2023-04-03T06:02:35;3.20;;;2.80;;
16506;SDS011;8366;51.020;7.642;2023-04-03T06:05:01;5.97;;;3.00;;
16506;SDS011;8366;51.020;7.642;2023-04-03T06:07:29;4.17;;;3.00;;
16506;SDS011;8366;51.020;7.642;2023-04-03T06:09:56;7.87;;;3.17;;
16506;SDS011;8366;51.020;7.642;2023-04-03T06:12:23;5.67;;;3.10;;
16506;SDS011;8366;51.020;7.642;2023-04-03T06:14:50;4.50;;;3.00;;
16506;SDS011;8366;51.020;7.642;2023-04-03T06:17:17;5.47;;;3.40;;
16506;SDS011;8366;51.020;7.642;2023-04-03T06:19:44;4.27;;;3.30;;
16506;SDS011;8366;51.020;7.642;2023-04-03T06:22:11;7.07;;;3.77;;
16506;SDS011;8366;51.020;7.642;2023-04-03T06:24:39;8.60;;;4.83;;
16506;SDS011;8366;51.020;7.642;2023-04-03T06:27:05;11.87;;;5.40;;
16506;SDS011;8366;51.020;7.642;2023-04-03T06:29:32;10.03;;;5.30;;
16506;SDS011;8366;51.020;7.642;2023-04-03T06:31:58;7.77;;;3.47;;
16506;SDS011;8366;51.020;7.642;2023-04-03T06:34:25;7.60;;;3.20;;
16506;SDS011;8366;51.020;7.642;2023-04-03T06:36:52;4.60;;;2.03;;
16506;SDS011;8366;51.020;7.642;2023-04-03T06:39:19;4.57;;;2.27;;
16506;SDS011;8366;51.020;7.642;2023-04-03T06:41:48;4.33;;;2.00;;
16506;SDS011;8366;51.020;7.642;2023-04-03T06:44:15;4.93;;;2.00;;
16506;SDS011;8366;51.020;7.642;2023-04-03T06:46:42;4.77;;;2.00;;
16506;SDS011;8366;51.020;7.642;2023-04-03T06:49:10;4.67;;;1.90;;
16506;SDS011;8366;51.020;7.642;2023-04-03T06:51:36;3.00;;;1.60;;
16506;SDS011;8366;51.020;7.642;2023-04-03T06:54:03;6.13;;;1.70;;
16506;SDS011;8366;51.020;7.642;2023-04-03T06:56:31;4.60;;;1.53;;
16506;SDS011;8366;51.020;7.642;2023-04-03T06:58:59;4.30;;;1.33;;
16506;SDS011;8366;51.020;7.642;2023-04-03T07:01:26;6.43;;;1.43;;
16506;SDS011;8366;51.020;7.642;2023-04-03T07:03:53;4.27;;;1.60;;
16506;SDS011;8366;51.020;7.642;2023-04-03T07:06:20;4.30;;;1.60;;
16506;SDS011;8366;51.020;7.642;2023-04-03T07:08:47;3.80;;;1.37;;
16506;SDS011;8366;51.020;7.642;2023-04-03T07:11:14;6.40;;;1.47;;
16506;SDS011;8366;51.020;7.642;2023-04-03T07:13:40;5.83;;;1.73;;
16506;SDS011;8366;51.020;7.642;2023-04-03T07:16:08;4.53;;;1.87;;
16506;SDS011;8366;51.020;7.642;2023-04-03T07:18:35;4.40;;;1.87;;
16506;SDS011;8366;51.020;7.642;2023-04-03T07:21:02;4.03;;;1.40;;
16506;SDS011;8366;51.020;7.642;2023-04-03T07:23:29;3.50;;;1.33;;
16506;SDS011;8366;51.020;7.642;2023-04-03T07:25:56;3.67;;;1.50;;
16506;SDS011;8366;51.020;7.642;2023-04-03T07:28:22;5.00;;;1.60;;
16506;SDS011;8366;51.020;7.642;2023-04-03T07:30:50;4.27;;;1.80;;
16506;SDS011;8366;51.020;7.642;2023-04-03T07:33:19;3.03;;;1.47;;
16506;SDS011;8366;51.020;7.642;2023-04-03T07:35:47;3.63;;;1.70;;
16506;SDS011;8366;51.020;7.642;2023-04-03T07:38:14;3.80;;;1.80;;
16506;SDS011;8366;51.020;7.642;2023-04-03T07:40:41;5.93;;;2.00;;
16506;SDS011;8366;51.020;7.642;2023-04-03T07:43:11;6.80;;;1.80;;
16506;SDS011;8366;51.020;7.642;2023-04-03T07:45:38;4.43;;;1.47;;
16506;SDS011;8366;51.020;7.642;2023-04-03T07:48:05;4.17;;;1.93;;
16506;SDS011;8366;51.020;7.642;2023-04-03T07:50:33;5.60;;;2.00;;
16506;SDS011;8366;51.020;7.642;2023-04-03T07:52:59;4.03;;;1.57;;
16506;SDS011;8366;51.020;7.642;2023-04-03T07:55:26;3.33;;;1.70;;
16506;SDS011;8366;51.020;7.642;2023-04-03T07:57:52;4.00;;;1.67;;
16506;SDS011;8366;51.020;7.642;2023-04-03T08:00:19;4.27;;;1.77;;
16506;SDS011;8366;51.020;7.642;2023-04-03T08:02:45;4.10;;;1.70;;
16506;SDS011;8366;51.020;7.642;2023-04-03T08:05:15;4.73;;;1.60;;
16506;SDS011;8366;51.020;7.642;2023-04-03T08:07:43;3.77;;;1.70;;
16506;SDS011;8366;51.020;7.642;2023-04-03T08:10:10;3.90;;;1.50;;
16506;SDS011;8366;51.020;7.642;2023-04-03T08:12:36;3.57;;;1.43;;
16506;SDS011;8366;51.020;7.642;2023-04-03T08:15:03;5.17;;;1.67;;
16506;SDS011;8366;51.020;7.642;2023-04-03T08:17:30;4.50;;;1.53;;
16506;SDS011;8366;51.020;7.642;2023-04-03T08:19:57;5.30;;;1.60;;
16506;SDS011;8366;51.020;7.642;2023-04-03T08:22:23;2.70;;;1.40;;
16506;SDS011;8366;51.020;7.642;2023-04-03T08:24:51;3.73;;;1.63;;
16506;SDS011;8366;51.020;7.642;2023-04-03T08:27:17;2.47;;;1.50;;
16506;SDS011;8366;51.020;7.642;2023-04-03T08:29:44;4.23;;;2.07;;
16506;SDS011;8366;51.020;7.642;2023-04-03T08:32:10;2.97;;;1.50;;
16506;SDS011;8366;51.020;7.642;2023-04-03T08:34:37;2.80;;;1.30;;
16506;SDS011;8366;51.020;7.642;2023-04-03T08:37:04;3.13;;;1.60;;
16506;SDS011;8366;51.020;7.642;2023-04-03T08:39:31;1.97;;;1.20;;
16506;SDS011;8366;51.020;7.642;2023-04-03T08:41:59;4.37;;;1.17;;
16506;SDS011;8366;51.020;7.642;2023-04-03T08:44:34;3.20;;;1.30;;
16506;SDS011;8366;51.020;7.642;2023-04-03T08:47:10;2.17;;;1.20;;
16506;SDS011;8366;51.020;7.642;2023-04-03T08:49:39;3.73;;;1.37;;
16506;SDS011;8366;51.020;7.642;2023-04-03T08:52:12;3.60;;;1.20;;
16506;SDS011;8366;51.020;7.642;2023-04-03T08:54:42;2.67;;;1.23;;
16506;SDS011;8366;51.020;7.642;2023-04-03T08:57:16;3.53;;;1.40;;
16506;SDS011;8366;51.020;7.642;2023-04-03T08:59:43;3.13;;;1.30;;
16506;SDS011;8366;51.020;7.642;2023-04-03T09:02:16;2.27;;;1.27;;
16506;SDS011;8366;51.020;7.642;2023-04-03T09:04:50;3.20;;;1.30;;
16506;SDS011;8366;51.020;7.642;2023-04-03T09:07:18;2.77;;;0.80;;
16506;SDS011;8366;51.020;7.642;2023-04-03T09:09:48;2.40;;;0.90;;
16506;SDS011;8366;51.020;7.642;2023-04-03T09:12:18;4.97;;;1.10;;
16506;SDS011;8366;51.020;7.642;2023-04-03T09:14:50;3.27;;;1.20;;
16506;SDS011;8366;51.020;7.642;2023-04-03T09:17:27;2.83;;;1.00;;
16506;SDS011;8366;51.020;7.642;2023-04-03T09:20:09;3.00;;;0.90;;
16506;SDS011;8366;51.020;7.642;2023-04-03T09:22:41;3.97;;;1.00;;
16506;SDS011;8366;51.020;7.642;2023-04-03T09:25:10;2.77;;;1.20;;
16506;SDS011;8366;51.020;7.642;2023-04-03T09:27:41;3.27;;;1.00;;
16506;SDS011;8366;51.020;7.642;2023-04-03T09:30:11;2.77;;;1.20;;
16506;SDS011;8366;51.020;7.642;2023-04-03T09:32:39;3.03;;;1.10;;
16506;SDS011;8366;51.020;7.642;2023-04-03T09:35:10;2.70;;;0.90;;
16506;SDS011;8366;51.020;7.642;2023-04-03T09:37:44;3.93;;;0.93;;
16506;SDS011;8366;51.020;7.642;2023-04-03T09:40:31;2.83;;;1.10;;
16506;SDS011;8366;51.020;7.642;2023-04-03T09:43:08;3.00;;;0.90;;
16506;SDS011;8366;51.020;7.642;2023-04-03T09:45:46;2.27;;;1.20;;
16506;SDS011;8366;51.020;7.642;2023-04-03T09:48:15;1.70;;;1.00;;
16506;SDS011;8366;51.020;7.642;2023-04-03T09:50:53;2.60;;;0.90;;
16506;SDS011;8366;51.020;7.642;2023-04-03T09:53:31;2.27;;;0.90;;
16506;SDS011;8366;51.020;7.642;2023-04-03T09:56:00;2.43;;;0.70;;
16506;SDS011;8366;51.020;7.642;2023-04-03T09:58:31;3.13;;;0.90;;
16506;SDS011;8366;51.020;7.642;2023-04-03T10:01:00;2.03;;;0.80;;
16506;SDS011;8366;51.020;7.642;2023-04-03T10:03:28;2.50;;;0.80;;
16506;SDS011;8366;51.020;7.642;2023-04-03T10:05:56;1.13;;;0.80;;
16506;SDS011;8366;51.020;7.642;2023-04-03T10:08:24;4.13;;;1.30;;
16506;SDS011;8366;51.020;7.642;2023-04-03T10:13:51;1.73;;;0.93;;
16506;SDS011;8366;51.020;7.642;2023-04-03T10:16:21;1.67;;;0.73;;
16506;SDS011;8366;51.020;7.642;2023-04-03T10:18:54;2.30;;;0.90;;
16506;SDS011;8366;51.020;7.642;2023-04-03T10:21:32;2.03;;;0.87;;
16506;SDS011;8366;51.020;7.642;2023-04-03T10:24:04;1.43;;;0.70;;
16506;SDS011;8366;51.020;7.642;2023-04-03T10:26:36;1.50;;;0.90;;
16506;SDS011;8366;51.020;7.642;2023-04-03T10:29:09;1.37;;;0.80;;
16506;SDS011;8366;51.020;7.642;2023-04-03T10:31:44;2.20;;;1.20;;
16506;SDS011;8366;51.020;7.642;2023-04-03T10:34:22;1.10;;;0.80;;
16506;SDS011;8366;51.020;7.642;2023-04-03T10:36:52;1.13;;;0.80;;
16506;SDS011;8366;51.020;7.642;2023-04-03T10:39:23;1.93;;;1.20;;
16506;SDS011;8366;51.020;7.642;2023-04-03T10:41:58;1.30;;;0.90;;
16506;SDS011;8366;51.020;7.642;2023-04-03T10:44:34;1.80;;;0.80;;
16506;SDS011;8366;51.020;7.642;2023-04-03T10:47:05;1.10;;;0.67;;
16506;SDS011;8366;51.020;7.642;2023-04-03T10:49:37;2.83;;;0.80;;
16506;SDS011;8366;51.020;7.642;2023-04-03T10:52:12;1.83;;;1.17;;
16506;SDS011;8366;51.020;7.642;2023-04-03T10:54:43;2.77;;;0.87;;
16506;SDS011;8366;51.020;7.642;2023-04-03T10:57:13;2.13;;;0.90;;
16506;SDS011;8366;51.020;7.642;2023-04-03T10:59:43;1.10;;;0.80;;
16506;SDS011;8366;51.020;7.642;2023-04-03T11:02:13;1.57;;;0.80;;
16506;SDS011;8366;51.020;7.642;2023-04-03T11:04:44;2.97;;;0.87;;
16506;SDS011;8366;51.020;7.642;2023-04-03T11:07:14;1.77;;;1.03;;
16506;SDS011;8366;51.020;7.642;2023-04-03T11:09:43;1.53;;;0.80;;
16506;SDS011;8366;51.020;7.642;2023-04-03T11:12:13;0.80;;;0.70;;
16506;SDS011;8366;51.020;7.642;2023-04-03T11:14:44;2.00;;;0.80;;
16506;SDS011;8366;51.020;7.642;2023-04-03T11:17:15;1.13;;;0.83;;
16506;SDS011;8366;51.020;7.642;2023-04-03T11:19:49;2.17;;;0.80;;
16506;SDS011;8366;51.020;7.642;2023-04-03T11:22:21;1.90;;;0.90;;
16506;SDS011;8366;51.020;7.642;2023-04-03T11:24:52;2.57;;;0.93;;
16506;SDS011;8366;51.020;7.642;2023-04-03T11:27:24;1.50;;;0.83;;
16506;SDS011;8366;51.020;7.642;2023-04-03T11:29:53;0.90;;;0.70;;
16506;SDS011;8366;51.020;7.642;2023-04-03T11:32:29;2.40;;;1.10;;
16506;SDS011;8366;51.020;7.642;2023-04-03T11:35:06;2.97;;;1.00;;
16506;SDS011;8366;51.020;7.642;2023-04-03T11:37:34;2.90;;;1.20;;
16506;SDS011;8366;51.020;7.642;2023-04-03T11:40:03;1.70;;;1.00;;
16506;SDS011;8366;51.020;7.642;2023-04-03T11:42:33;1.90;;;1.00;;
16506;SDS011;8366;51.020;7.642;2023-04-03T11:47:58;1.60;;;1.10;;
16506;SDS011;8366;51.020;7.642;2023-04-03T11:50:38;2.37;;;1.00;;
16506;SDS011;8366;51.020;7.642;2023-04-03T11:53:26;1.43;;;0.83;;
16506;SDS011;8366;51.020;7.642;2023-04-03T11:55:55;2.60;;;1.07;;
16506;SDS011;8366;51.020;7.642;2023-04-03T11:58:31;2.17;;;1.10;;
16506;SDS011;8366;51.020;7.642;2023-04-03T12:01:04;3.53;;;1.10;;
16506;SDS011;8366;51.020;7.642;2023-04-03T12:12:42;2.27;;;1.10;;
16506;SDS011;8366;51.020;7.642;2023-04-03T12:18:38;2.00;;;1.10;;
16506;SDS011;8366;51.020;7.642;2023-04-03T12:21:07;1.57;;;1.10;;
16506;SDS011;8366;51.020;7.642;2023-04-03T12:23:34;1.70;;;1.03;;
16506;SDS011;8366;51.020;7.642;2023-04-03T12:26:04;5.40;;;1.20;;
16506;SDS011;8366;51.020;7.642;2023-04-03T12:28:36;3.30;;;1.00;;
16506;SDS011;8366;51.020;7.642;2023-04-03T12:31:04;3.47;;;1.30;;
16506;SDS011;8366;51.020;7.642;2023-04-03T12:33:33;1.60;;;1.00;;
16506;SDS011;8366;51.020;7.642;2023-04-03T12:36:09;1.33;;;1.00;;
16506;SDS011;8366;51.020;7.642;2023-04-03T12:41:37;2.60;;;1.13;;
16506;SDS011;8366;51.020;7.642;2023-04-03T12:44:15;2.83;;;1.20;;
16506;SDS011;8366;51.020;7.642;2023-04-03T12:46:50;1.93;;;1.10;;
16506;SDS011;8366;51.020;7.642;2023-04-03T12:49:37;2.13;;;1.20;;
16506;SDS011;8366;51.020;7.642;2023-04-03T12:52:05;3.00;;;1.20;;
16506;SDS011;8366;51.020;7.642;2023-04-03T12:54:43;2.70;;;1.17;;
16506;SDS011;8366;51.020;7.642;2023-04-03T12:57:12;2.43;;;1.30;;
16506;SDS011;8366;51.020;7.642;2023-04-03T12:59:47;2.80;;;1.40;;
16506;SDS011;8366;51.020;7.642;2023-04-03T13:02:21;2.43;;;1.20;;
16506;SDS011;8366;51.020;7.642;2023-04-03T13:04:51;2.80;;;1.23;;
16506;SDS011;8366;51.020;7.642;2023-04-03T13:07:19;3.57;;;1.00;;
16506;SDS011;8366;51.020;7.642;2023-04-03T13:09:54;2.00;;;1.00;;
16506;SDS011;8366;51.020;7.642;2023-04-03T13:12:21;2.33;;;1.00;;
16506;SDS011;8366;51.020;7.642;2023-04-03T13:14:51;1.43;;;1.00;;
16506;SDS011;8366;51.020;7.642;2023-04-03T13:17:18;2.03;;;1.00;;
16506;SDS011;8366;51.020;7.642;2023-04-03T13:19:44;2.63;;;1.30;;
16506;SDS011;8366;51.020;7.642;2023-04-03T13:22:16;2.67;;;1.00;;
16506;SDS011;8366;51.020;7.642;2023-04-03T13:24:51;1.60;;;1.17;;
16506;SDS011;8366;51.020;7.642;2023-04-03T13:27:18;3.03;;;1.10;;
16506;SDS011;8366;51.020;7.642;2023-04-03T13:29:48;2.50;;;1.20;;
16506;SDS011;8366;51.020;7.642;2023-04-03T13:32:17;2.03;;;1.10;;
16506;SDS011;8366;51.020;7.642;2023-04-03T13:34:45;1.83;;;1.00;;
16506;SDS011;8366;51.020;7.642;2023-04-03T13:37:20;3.30;;;1.30;;
16506;SDS011;8366;51.020;7.642;2023-04-03T13:39:56;2.33;;;1.07;;
16506;SDS011;8366;51.020;7.642;2023-04-03T13:42:24;2.30;;;1.10;;
16506;SDS011;8366;51.020;7.642;2023-04-03T13:45:06;3.30;;;1.20;;
16506;SDS011;8366;51.020;7.642;2023-04-03T13:47:38;2.30;;;1.20;;
16506;SDS011;8366;51.020;7.642;2023-04-03T13:50:14;3.40;;;1.30;;
16506;SDS011;8366;51.020;7.642;2023-04-03T13:52:45;2.93;;;0.90;;
16506;SDS011;8366;51.020;7.642;2023-04-03T13:55:17;3.77;;;1.10;;
16506;SDS011;8366;51.020;7.642;2023-04-03T13:57:51;2.33;;;1.20;;
16506;SDS011;8366;51.020;7.642;2023-04-03T14:00:20;3.03;;;1.17;;
16506;SDS011;8366;51.020;7.642;2023-04-03T14:02:54;1.93;;;1.20;;
16506;SDS011;8366;51.020;7.642;2023-04-03T14:05:22;2.57;;;1.10;;
16506;SDS011;8366;51.020;7.642;2023-04-03T14:07:52;3.07;;;1.20;;
16506;SDS011;8366;51.020;7.642;2023-04-03T14:10:19;2.37;;;1.13;;
16506;SDS011;8366;51.020;7.642;2023-04-03T14:12:45;1.57;;;1.20;;
16506;SDS011;8366;51.020;7.642;2023-04-03T14:15:15;2.00;;;1.17;;
16506;SDS011;8366;51.020;7.642;2023-04-03T14:17:44;2.67;;;1.20;;
16506;SDS011;8366;51.020;7.642;2023-04-03T14:20:13;3.83;;;1.43;;
16506;SDS011;8366;51.020;7.642;2023-04-03T14:22:41;2.80;;;1.50;;
16506;SDS011;8366;51.020;7.642;2023-04-03T14:25:09;3.50;;;1.30;;
16506;SDS011;8366;51.020;7.642;2023-04-03T14:27:37;1.83;;;1.20;;
16506;SDS011;8366;51.020;7.642;2023-04-03T14:30:06;2.73;;;1.20;;
16506;SDS011;8366;51.020;7.642;2023-04-03T14:32:34;3.03;;;1.40;;
16506;SDS011;8366;51.020;7.642;2023-04-03T14:35:01;2.73;;;1.30;;
16506;SDS011;8366;51.020;7.642;2023-04-03T14:37:29;2.87;;;1.10;;
16506;SDS011;8366;51.020;7.642;2023-04-03T14:39:57;2.00;;;1.10;;
16506;SDS011;8366;51.020;7.642;2023-04-03T14:42:26;2.47;;;1.43;;
16506;SDS011;8366;51.020;7.642;2023-04-03T14:44:55;1.73;;;1.10;;
16506;SDS011;8366;51.020;7.642;2023-04-03T14:47:22;2.53;;;1.30;;
16506;SDS011;8366;51.020;7.642;2023-04-03T14:49:51;1.73;;;1.10;;
16506;SDS011;8366;51.020;7.642;2023-04-03T14:52:19;1.87;;;1.10;;
16506;SDS011;8366;51.020;7.642;2023-04-03T14:54:47;1.73;;;1.20;;
16506;SDS011;8366;51.020;7.642;2023-04-03T14:57:14;2.43;;;1.20;;
16506;SDS011;8366;51.020;7.642;2023-04-03T14:59:42;2.47;;;1.50;;
16506;SDS011;8366;51.020;7.642;2023-04-03T15:04:52;2.03;;;1.20;;
16506;SDS011;8366;51.020;7.642;2023-04-03T15:07:18;2.47;;;1.23;;
16506;SDS011;8366;51.020;7.642;2023-04-03T15:09:45;2.30;;;1.17;;
16506;SDS011;8366;51.020;7.642;2023-04-03T15:12:11;2.90;;;1.10;;
16506;SDS011;8366;51.020;7.642;2023-04-03T15:14:38;2.40;;;1.10;;
16506;SDS011;8366;51.020;7.642;2023-04-03T15:17:06;2.63;;;1.20;;
16506;SDS011;8366;51.020;7.642;2023-04-03T15:19:37;4.17;;;1.40;;
16506;SDS011;8366;51.020;7.642;2023-04-03T15:22:04;2.47;;;1.40;;
16506;SDS011;8366;51.020;7.642;2023-04-03T15:24:30;2.30;;;1.30;;
16506;SDS011;8366;51.020;7.642;2023-04-03T15:26:57;3.03;;;1.20;;
16506;SDS011;8366;51.020;7.642;2023-04-03T15:29:23;2.47;;;1.30;;
16506;SDS011;8366;51.020;7.642;2023-04-03T15:31:50;3.90;;;1.80;;
16506;SDS011;8366;51.020;7.642;2023-04-03T15:34:19;3.87;;;1.33;;
16506;SDS011;8366;51.020;7.642;2023-04-03T15:36:46;1.60;;;1.10;;